sensor_id;sensor_type;location;lat;lon;timestamp;pressure;altitude;pressure_sealevel;temperature;humidity
41264;BME280;26998;48.714;9.414;2023-05-20T00:01:46;99627.91;;;11.44;100.00
41264;BME280;26998;48.714;9.414;2023-05-20T00:04:13;99638.41;;;11.45;100.00
41264;BME280;26998;48.714;9.414;2023-05-20T00:06:39;99669.41;;;11.40;100.00
41264;BME280;26998;48.714;9.414;2023-05-20T00:09:06;99693.69;;;11.38;100.00
41264;BME280;26998;48.714;9.414;2023-05-20T00:11:33;99704.41;;;11.38;100.00
41264;BME280;26998;48.714;9.414;2023-05-20T00:14:00;99713.63;;;11.36;100.00
41264;BME280;26998;48.714;9.414;2023-05-20T00:16:28;99719.44;;;11.39;100.00
41264;BME280;26998;48.714;9.414;2023-05-20T00:18:55;99697.19;;;11.39;100.00
41264;BME280;26998;48.714;9.414;2023-05-20T00:21:22;99677.44;;;11.40;100.00
41264;BME280;26998;48.714;9.414;2023-05-20T00:23:49;99677.91;;;11.43;100.00
41264;BME280;26998;48.714;9.414;2023-05-20T00:26:16;99704.19;;;11.40;100.00
41264;BME280;26998;48.714;9.414;2023-05-20T00:28:42;99711.13;;;11.34;100.00
41264;BME280;26998;48.714;9.414;2023-05-20T00:31:09;99727.16;;;11.19;100.00
41264;BME280;26998;48.714;9.414;2023-05-20T00:33:36;99753.69;;;11.06;100.00
41264;BME280;26998;48.714;9.414;2023-05-20T00:36:03;99782.25;;;11.05;100.00
41264;BME280;26998;48.714;9.414;2023-05-20T00:38:30;99796.28;;;11.07;100.00
41264;BME280;26998;48.714;9.414;2023-05-20T00:40:56;99793.94;;;11.13;100.00
41264;BME280;26998;48.714;9.414;2023-05-20T00:43:23;99784.41;;;11.10;100.00
41264;BME280;26998;48.714;9.414;2023-05-20T00:45:51;99772.06;;;11.09;100.00
41264;BME280;26998;48.714;9.414;2023-05-20T00:48:18;99783.28;;;11.04;100.00
41264;BME280;26998;48.714;9.414;2023-05-20T00:50:46;99781.78;;;11.02;100.00
41264;BME280;26998;48.714;9.414;2023-05-20T00:53:15;99789.44;;;11.05;100.00
41264;BME280;26998;48.714;9.414;2023-05-20T00:55:43;99786.16;;;11.03;100.00
41264;BME280;26998;48.714;9.414;2023-05-20T00:58:10;99796.66;;;11.04;100.00
41264;BME280;26998;48.714;9.414;2023-05-20T01:00:37;99781.50;;;10.97;100.00
41264;BME280;26998;48.714;9.414;2023-05-20T01:03:04;99772.16;;;10.93;100.00
41264;BME280;26998;48.714;9.414;2023-05-20T01:05:31;99763.00;;;10.87;100.00
41264;BME280;26998;48.714;9.414;2023-05-20T01:07:58;99761.81;;;10.90;100.00
41264;BME280;26998;48.714;9.414;2023-05-20T01:10:27;99747.97;;;10.86;100.00
41264;BME280;26998;48.714;9.414;2023-05-20T01:12:57;99768.56;;;10.77;100.00
41264;BME280;26998;48.714;9.414;2023-05-20T01:15:26;99784.50;;;10.71;100.00
41264;BME280;26998;48.714;9.414;2023-05-20T01:17:57;99800.88;;;10.68;100.00
41264;BME280;26998;48.714;9.414;2023-05-20T01:20:27;99812.13;;;10.63;100.00
41264;BME280;26998;48.714;9.414;2023-05-20T01:22:55;99813.47;;;10.59;100.00
41264;BME280;26998;48.714;9.414;2023-05-20T01:25:22;99820.84;;;10.49;100.00
41264;BME280;26998;48.714;9.414;2023-05-20T01:27:50;99850.59;;;10.46;100.00
41264;BME280;26998;48.714;9.414;2023-05-20T01:30:18;99359.44;;;10.41;100.00
41264;BME280;26998;48.714;9.414;2023-05-20T01:32:49;99340.66;;;10.34;100.00
41264;BME280;26998;48.714;9.414;2023-05-20T01:35:19;99333.63;;;10.33;100.00
41264;BME280;26998;48.714;9.414;2023-05-20T01:37:47;99325.53;;;10.27;100.00
41264;BME280;26998;48.714;9.414;2023-05-20T01:40:16;99312.00;;;10.28;100.00
41264;BME280;26998;48.714;9.414;2023-05-20T01:42:44;99315.00;;;10.25;100.00
41264;BME280;26998;48.714;9.414;2023-05-20T01:45:12;99310.88;;;10.23;100.00
41264;BME280;26998;48.714;9.414;2023-05-20T01:47:39;99307.53;;;10.21;100.00
41264;BME280;26998;48.714;9.414;2023-05-20T01:50:06;99298.03;;;10.18;100.00
41264;BME280;26998;48.714;9.414;2023-05-20T01:52:33;99288.00;;;10.20;100.00
41264;BME280;26998;48.714;9.414;2023-05-20T01:54:59;99291.88;;;10.17;100.00
41264;BME280;26998;48.714;9.414;2023-05-20T01:57:26;99289.41;;;10.16;100.00
41264;BME280;26998;48.714;9.414;2023-05-20T01:59:53;99300.91;;;10.16;100.00
41264;BME280;26998;48.714;9.414;2023-05-20T02:02:20;99288.56;;;10.15;100.00
41264;BME280;26998;48.714;9.414;2023-05-20T02:04:50;99286.91;;;10.14;100.00
41264;BME280;26998;48.714;9.414;2023-05-20T02:07:17;99287.47;;;10.10;100.00
41264;BME280;26998;48.714;9.414;2023-05-20T02:09:44;99288.84;;;10.06;100.00
41264;BME280;26998;48.714;9.414;2023-05-20T02:12:11;99282.03;;;10.03;100.00
41264;BME280;26998;48.714;9.414;2023-05-20T02:14:38;99276.41;;;9.98;100.00
41264;BME280;26998;48.714;9.414;2023-05-20T02:17:05;99274.94;;;9.95;100.00
41264;BME280;26998;48.714;9.414;2023-05-20T02:19:32;99262.69;;;9.86;100.00
41264;BME280;26998;48.714;9.414;2023-05-20T02:21:58;99251.56;;;9.83;100.00
41264;BME280;26998;48.714;9.414;2023-05-20T02:24:25;99238.41;;;9.81;100.00
41264;BME280;26998;48.714;9.414;2023-05-20T02:26:51;99231.84;;;9.84;100.00
41264;BME280;26998;48.714;9.414;2023-05-20T02:29:18;99226.34;;;9.85;100.00
41264;BME280;26998;48.714;9.414;2023-05-20T02:31:44;99230.41;;;9.81;100.00
41264;BME280;26998;48.714;9.414;2023-05-20T02:34:11;99238.56;;;9.80;100.00
41264;BME280;26998;48.714;9.414;2023-05-20T02:36:38;99239.31;;;9.74;100.00
41264;BME280;26998;48.714;9.414;2023-05-20T02:39:05;99234.16;;;9.72;100.00
41264;BME280;26998;48.714;9.414;2023-05-20T02:41:31;99229.44;;;9.74;100.00
41264;BME280;26998;48.714;9.414;2023-05-20T02:43:58;99230.28;;;9.75;100.00
41264;BME280;26998;48.714;9.414;2023-05-20T02:46:25;99232.13;;;9.74;100.00
41264;BME280;26998;48.714;9.414;2023-05-20T02:48:51;99240.31;;;9.73;100.00
41264;BME280;26998;48.714;9.414;2023-05-20T02:51:18;99237.00;;;9.70;100.00
41264;BME280;26998;48.714;9.414;2023-05-20T02:53:45;99245.44;;;9.59;100.00
41264;BME280;26998;48.714;9.414;2023-05-20T02:56:12;99237.69;;;9.49;100.00
41264;BME280;26998;48.714;9.414;2023-05-20T02:58:39;99224.72;;;9.46;100.00
41264;BME280;26998;48.714;9.414;2023-05-20T03:01:06;99216.56;;;9.48;100.00
41264;BME280;26998;48.714;9.414;2023-05-20T03:03:33;99205.41;;;9.44;100.00
41264;BME280;26998;48.714;9.414;2023-05-20T03:05:59;99193.28;;;9.42;100.00
41264;BME280;26998;48.714;9.414;2023-05-20T03:08:26;99195.13;;;9.41;100.00
41264;BME280;26998;48.714;9.414;2023-05-20T03:10:52;99179.09;;;9.41;100.00
41264;BME280;26998;48.714;9.414;2023-05-20T03:13:19;99182.75;;;9.40;100.00
41264;BME280;26998;48.714;9.414;2023-05-20T03:15:46;99186.66;;;9.38;100.00
41264;BME280;26998;48.714;9.414;2023-05-20T03:18:12;99182.97;;;9.39;100.00
41264;BME280;26998;48.714;9.414;2023-05-20T03:20:39;99174.97;;;9.39;100.00
41264;BME280;26998;48.714;9.414;2023-05-20T03:23:06;99165.47;;;9.36;100.00
41264;BME280;26998;48.714;9.414;2023-05-20T03:25:33;99165.94;;;9.40;100.00
41264;BME280;26998;48.714;9.414;2023-05-20T03:28:01;99165.69;;;9.35;100.00
41264;BME280;26998;48.714;9.414;2023-05-20T03:30:27;99167.69;;;9.33;100.00
41264;BME280;26998;48.714;9.414;2023-05-20T03:32:54;99163.72;;;9.29;100.00
41264;BME280;26998;48.714;9.414;2023-05-20T03:35:21;99175.41;;;9.28;100.00
41264;BME280;26998;48.714;9.414;2023-05-20T03:37:48;99168.13;;;9.21;100.00
41264;BME280;26998;48.714;9.414;2023-05-20T03:40:14;99170.63;;;9.23;100.00
41264;BME280;26998;48.714;9.414;2023-05-20T03:42:41;99176.94;;;9.22;100.00
41264;BME280;26998;48.714;9.414;2023-05-20T03:45:08;99175.59;;;9.26;100.00
41264;BME280;26998;48.714;9.414;2023-05-20T03:47:35;99166.41;;;9.29;100.00
41264;BME280;26998;48.714;9.414;2023-05-20T03:50:02;99154.34;;;9.33;100.00
41264;BME280;26998;48.714;9.414;2023-05-20T03:52:29;99148.19;;;9.32;100.00
41264;BME280;26998;48.714;9.414;2023-05-20T03:54:55;99139.63;;;9.37;100.00
41264;BME280;26998;48.714;9.414;2023-05-20T03:57:22;99132.75;;;9.42;100.00
41264;BME280;26998;48.714;9.414;2023-05-20T03:59:49;99135.03;;;9.45;100.00
41264;BME280;26998;48.714;9.414;2023-05-20T04:02:15;99132.81;;;9.49;100.00
41264;BME280;26998;48.714;9.414;2023-05-20T04:04:42;99129.72;;;9.60;100.00
41264;BME280;26998;48.714;9.414;2023-05-20T04:07:09;99142.31;;;9.66;100.00
41264;BME280;26998;48.714;9.414;2023-05-20T04:09:37;99151.88;;;9.76;100.00
41264;BME280;26998;48.714;9.414;2023-05-20T04:12:04;99161.97;;;9.80;100.00
41264;BME280;26998;48.714;9.414;2023-05-20T04:14:31;99163.91;;;9.86;100.00
41264;BME280;26998;48.714;9.414;2023-05-20T04:17:00;99175.25;;;9.88;100.00
41264;BME280;26998;48.714;9.414;2023-05-20T04:19:26;99172.28;;;9.98;100.00
41264;BME280;26998;48.714;9.414;2023-05-20T04:21:53;99184.50;;;10.07;100.00
41264;BME280;26998;48.714;9.414;2023-05-20T04:24:20;99186.06;;;10.16;100.00
41264;BME280;26998;48.714;9.414;2023-05-20T04:26:47;99191.28;;;10.25;100.00
41264;BME280;26998;48.714;9.414;2023-05-20T04:29:13;99205.41;;;10.33;100.00
41264;BME280;26998;48.714;9.414;2023-05-20T04:31:47;99222.91;;;10.36;100.00
41264;BME280;26998;48.714;9.414;2023-05-20T04:34:13;99230.38;;;10.40;100.00
41264;BME280;26998;48.714;9.414;2023-05-20T04:36:40;99244.03;;;10.52;100.00
41264;BME280;26998;48.714;9.414;2023-05-20T04:39:07;99266.06;;;10.54;100.00
41264;BME280;26998;48.714;9.414;2023-05-20T04:41:34;99288.94;;;10.57;100.00
41264;BME280;26998;48.714;9.414;2023-05-20T04:44:02;99291.47;;;10.65;100.00
41264;BME280;26998;48.714;9.414;2023-05-20T04:46:29;99294.63;;;10.69;100.00
41264;BME280;26998;48.714;9.414;2023-05-20T04:48:56;99303.91;;;10.73;100.00
41264;BME280;26998;48.714;9.414;2023-05-20T04:51:22;99314.25;;;10.76;100.00
41264;BME280;26998;48.714;9.414;2023-05-20T04:53:49;99316.38;;;10.66;100.00
41264;BME280;26998;48.714;9.414;2023-05-20T04:56:16;99313.41;;;10.75;100.00
41264;BME280;26998;48.714;9.414;2023-05-20T04:58:43;99310.91;;;10.74;100.00
41264;BME280;26998;48.714;9.414;2023-05-20T05:01:09;99317.72;;;10.91;100.00
41264;BME280;26998;48.714;9.414;2023-05-20T05:03:36;99321.34;;;11.05;100.00
41264;BME280;26998;48.714;9.414;2023-05-20T05:06:03;99331.34;;;11.18;100.00
41264;BME280;26998;48.714;9.414;2023-05-20T05:08:31;99341.06;;;11.19;100.00
41264;BME280;26998;48.714;9.414;2023-05-20T05:10:57;99341.81;;;11.13;100.00
41264;BME280;26998;48.714;9.414;2023-05-20T05:13:24;99343.84;;;11.10;100.00
41264;BME280;26998;48.714;9.414;2023-05-20T05:15:58;99344.09;;;11.16;100.00
41264;BME280;26998;48.714;9.414;2023-05-20T05:18:25;99338.22;;;11.27;100.00
41264;BME280;26998;48.714;9.414;2023-05-20T05:21:00;99344.84;;;11.52;100.00
41264;BME280;26998;48.714;9.414;2023-05-20T05:23:27;99345.50;;;11.54;100.00
41264;BME280;26998;48.714;9.414;2023-05-20T05:25:54;99342.25;;;11.59;100.00
41264;BME280;26998;48.714;9.414;2023-05-20T05:28:21;99349.66;;;11.57;100.00
41264;BME280;26998;48.714;9.414;2023-05-20T05:30:47;99354.34;;;11.55;100.00
41264;BME280;26998;48.714;9.414;2023-05-20T05:33:14;99351.94;;;11.60;100.00
41264;BME280;26998;48.714;9.414;2023-05-20T05:35:42;99342.63;;;11.77;100.00
41264;BME280;26998;48.714;9.414;2023-05-20T05:38:08;99340.91;;;11.91;100.00
41264;BME280;26998;48.714;9.414;2023-05-20T05:40:35;99339.34;;;12.04;100.00
41264;BME280;26998;48.714;9.414;2023-05-20T05:43:02;99341.47;;;12.15;100.00
41264;BME280;26998;48.714;9.414;2023-05-20T05:45:29;99344.38;;;12.20;100.00
41264;BME280;26998;48.714;9.414;2023-05-20T05:47:55;99341.38;;;12.36;100.00
41264;BME280;26998;48.714;9.414;2023-05-20T05:50:22;99339.88;;;12.27;100.00
41264;BME280;26998;48.714;9.414;2023-05-20T05:52:50;99343.94;;;12.51;100.00
41264;BME280;26998;48.714;9.414;2023-05-20T05:55:17;99334.53;;;12.62;100.00
41264;BME280;26998;48.714;9.414;2023-05-20T05:57:44;99333.69;;;13.23;100.00
41264;BME280;26998;48.714;9.414;2023-05-20T06:00:11;99309.38;;;13.44;100.00
41264;BME280;26998;48.714;9.414;2023-05-20T06:02:37;99290.38;;;13.66;100.00
41264;BME280;26998;48.714;9.414;2023-05-20T06:05:05;99271.13;;;13.89;100.00
41264;BME280;26998;48.714;9.414;2023-05-20T06:07:32;99271.97;;;13.96;100.00
41264;BME280;26998;48.714;9.414;2023-05-20T06:09:59;99273.59;;;13.97;100.00
41264;BME280;26998;48.714;9.414;2023-05-20T06:12:26;99266.59;;;13.96;100.00
41264;BME280;26998;48.714;9.414;2023-05-20T06:14:53;99255.19;;;14.07;100.00
41264;BME280;26998;48.714;9.414;2023-05-20T06:17:19;99238.06;;;14.91;100.00
41264;BME280;26998;48.714;9.414;2023-05-20T06:19:46;99164.22;;;15.12;100.00
41264;BME280;26998;48.714;9.414;2023-05-20T06:22:15;99135.16;;;14.96;100.00
41264;BME280;26998;48.714;9.414;2023-05-20T06:24:42;99146.50;;;15.05;100.00
41264;BME280;26998;48.714;9.414;2023-05-20T06:27:08;99080.03;;;15.97;100.00
41264;BME280;26998;48.714;9.414;2023-05-20T06:29:35;98954.34;;;16.38;100.00
41264;BME280;26998;48.714;9.414;2023-05-20T06:32:02;98976.44;;;16.58;100.00
41264;BME280;26998;48.714;9.414;2023-05-20T06:34:29;98910.38;;;16.49;100.00
41264;BME280;26998;48.714;9.414;2023-05-20T06:36:56;98855.25;;;17.66;100.00
41264;BME280;26998;48.714;9.414;2023-05-20T06:39:24;98865.44;;;16.67;100.00
41264;BME280;26998;48.714;9.414;2023-05-20T06:41:51;98955.84;;;15.68;100.00
41264;BME280;26998;48.714;9.414;2023-05-20T06:44:18;98963.13;;;16.22;100.00
41264;BME280;26998;48.714;9.414;2023-05-20T06:46:45;98924.00;;;16.54;100.00
41264;BME280;26998;48.714;9.414;2023-05-20T06:49:12;98912.13;;;16.91;100.00
41264;BME280;26998;48.714;9.414;2023-05-20T06:51:38;98910.59;;;16.59;100.00
41264;BME280;26998;48.714;9.414;2023-05-20T06:54:05;98929.50;;;17.35;100.00
41264;BME280;26998;48.714;9.414;2023-05-20T06:56:32;98788.09;;;17.92;100.00
41264;BME280;26998;48.714;9.414;2023-05-20T06:58:58;98783.38;;;18.21;100.00
41264;BME280;26998;48.714;9.414;2023-05-20T07:01:25;98804.63;;;17.16;100.00
41264;BME280;26998;48.714;9.414;2023-05-20T07:03:52;98847.25;;;16.74;100.00
41264;BME280;26998;48.714;9.414;2023-05-20T07:06:21;98826.56;;;17.65;100.00
41264;BME280;26998;48.714;9.414;2023-05-20T07:08:50;98813.09;;;17.37;100.00
41264;BME280;26998;48.714;9.414;2023-05-20T07:11:17;98826.66;;;17.25;100.00
41264;BME280;26998;48.714;9.414;2023-05-20T07:13:43;98827.06;;;17.17;100.00
41264;BME280;26998;48.714;9.414;2023-05-20T07:16:10;98838.53;;;16.95;100.00
41264;BME280;26998;48.714;9.414;2023-05-20T07:18:38;98843.47;;;16.98;100.00
41264;BME280;26998;48.714;9.414;2023-05-20T07:21:05;98837.59;;;17.01;100.00
41264;BME280;26998;48.714;9.414;2023-05-20T07:23:32;98832.00;;;16.79;100.00
41264;BME280;26998;48.714;9.414;2023-05-20T07:25:58;98836.22;;;16.87;100.00
41264;BME280;26998;48.714;9.414;2023-05-20T07:28:25;98856.44;;;16.49;100.00
41264;BME280;26998;48.714;9.414;2023-05-20T07:30:52;98914.75;;;15.85;100.00
41264;BME280;26998;48.714;9.414;2023-05-20T07:33:21;98894.41;;;16.12;100.00
41264;BME280;26998;48.714;9.414;2023-05-20T07:35:49;98907.22;;;16.17;100.00
41264;BME280;26998;48.714;9.414;2023-05-20T07:38:15;98864.88;;;16.65;100.00
41264;BME280;26998;48.714;9.414;2023-05-20T07:40:42;98838.63;;;16.48;100.00
41264;BME280;26998;48.714;9.414;2023-05-20T07:43:09;98857.13;;;16.45;100.00
41264;BME280;26998;48.714;9.414;2023-05-20T07:45:37;98871.22;;;16.35;100.00
41264;BME280;26998;48.714;9.414;2023-05-20T07:48:04;98877.19;;;16.02;100.00
41264;BME280;26998;48.714;9.414;2023-05-20T07:50:32;98835.41;;;16.63;100.00
41264;BME280;26998;48.714;9.414;2023-05-20T07:52:59;98833.09;;;16.55;100.00
41264;BME280;26998;48.714;9.414;2023-05-20T07:55:26;98806.19;;;16.72;100.00
41264;BME280;26998;48.714;9.414;2023-05-20T07:57:54;98847.44;;;16.20;100.00
41264;BME280;26998;48.714;9.414;2023-05-20T08:00:22;98857.97;;;16.45;100.00
41264;BME280;26998;48.714;9.414;2023-05-20T08:02:49;98844.81;;;16.60;100.00
41264;BME280;26998;48.714;9.414;2023-05-20T08:05:17;98792.13;;;17.27;100.00
41264;BME280;26998;48.714;9.414;2023-05-20T08:07:45;98813.19;;;16.73;100.00
41264;BME280;26998;48.714;9.414;2023-05-20T08:10:12;98810.56;;;16.49;100.00
41264;BME280;26998;48.714;9.414;2023-05-20T08:12:39;98805.88;;;16.97;100.00
41264;BME280;26998;48.714;9.414;2023-05-20T08:15:06;98816.44;;;16.58;100.00
41264;BME280;26998;48.714;9.414;2023-05-20T08:17:33;98842.44;;;16.76;100.00
41264;BME280;26998;48.714;9.414;2023-05-20T08:20:00;98829.88;;;16.70;100.00
41264;BME280;26998;48.714;9.414;2023-05-20T08:22:27;98789.13;;;17.40;100.00
41264;BME280;26998;48.714;9.414;2023-05-20T08:24:54;98776.03;;;17.66;100.00
41264;BME280;26998;48.714;9.414;2023-05-20T08:27:21;98757.13;;;17.49;100.00
41264;BME280;26998;48.714;9.414;2023-05-20T08:29:48;98747.97;;;17.67;100.00
41264;BME280;26998;48.714;9.414;2023-05-20T08:32:14;98740.34;;;17.97;100.00
41264;BME280;26998;48.714;9.414;2023-05-20T08:34:41;98750.34;;;17.63;100.00
41264;BME280;26998;48.714;9.414;2023-05-20T08:37:08;98755.41;;;17.26;100.00
41264;BME280;26998;48.714;9.414;2023-05-20T08:39:35;98747.16;;;17.83;100.00
41264;BME280;26998;48.714;9.414;2023-05-20T08:42:04;98729.66;;;18.08;100.00
41264;BME280;26998;48.714;9.414;2023-05-20T08:44:31;98716.84;;;18.20;100.00
41264;BME280;26998;48.714;9.414;2023-05-20T08:46:58;98707.22;;;18.29;100.00
41264;BME280;26998;48.714;9.414;2023-05-20T08:49:25;98721.34;;;18.14;100.00
41264;BME280;26998;48.714;9.414;2023-05-20T08:51:52;98715.06;;;18.31;100.00
41264;BME280;26998;48.714;9.414;2023-05-20T08:54:20;98686.44;;;19.11;100.00
41264;BME280;26998;48.714;9.414;2023-05-20T08:56:48;98671.88;;;19.54;100.00
41264;BME280;26998;48.714;9.414;2023-05-20T08:59:16;98672.28;;;19.36;100.00
41264;BME280;26998;48.714;9.414;2023-05-20T09:01:43;98681.75;;;19.01;100.00
41264;BME280;26998;48.714;9.414;2023-05-20T09:04:10;98688.50;;;18.28;100.00
41264;BME280;26998;48.714;9.414;2023-05-20T09:06:44;98696.75;;;18.38;100.00
41264;BME280;26998;48.714;9.414;2023-05-20T09:09:12;98707.00;;;17.92;100.00
41264;BME280;26998;48.714;9.414;2023-05-20T09:11:41;98724.84;;;17.76;100.00
41264;BME280;26998;48.714;9.414;2023-05-20T09:14:09;98713.03;;;17.99;100.00
41264;BME280;26998;48.714;9.414;2023-05-20T09:16:35;98704.19;;;18.26;100.00
41264;BME280;26998;48.714;9.414;2023-05-20T09:19:04;98684.41;;;18.25;100.00
41264;BME280;26998;48.714;9.414;2023-05-20T09:21:31;98678.47;;;18.99;100.00
41264;BME280;26998;48.714;9.414;2023-05-20T09:24:00;98675.03;;;18.77;100.00
41264;BME280;26998;48.714;9.414;2023-05-20T09:26:28;98647.25;;;20.08;100.00
41264;BME280;26998;48.714;9.414;2023-05-20T09:28:55;98648.13;;;20.19;100.00
41264;BME280;26998;48.714;9.414;2023-05-20T09:31:32;98637.41;;;19.92;100.00
41264;BME280;26998;48.714;9.414;2023-05-20T09:34:02;98642.00;;;19.87;100.00
41264;BME280;26998;48.714;9.414;2023-05-20T09:36:28;98641.78;;;19.13;100.00
41264;BME280;26998;48.714;9.414;2023-05-20T09:38:59;98632.47;;;19.79;100.00
41264;BME280;26998;48.714;9.414;2023-05-20T09:41:26;98637.00;;;20.26;99.16
41264;BME280;26998;48.714;9.414;2023-05-20T09:43:59;98627.66;;;20.90;97.32
41264;BME280;26998;48.714;9.414;2023-05-20T09:46:28;98638.22;;;20.96;96.06
41264;BME280;26998;48.714;9.414;2023-05-20T09:48:56;98630.16;;;19.60;100.00
41264;BME280;26998;48.714;9.414;2023-05-20T09:51:22;98618.84;;;20.32;98.08
41264;BME280;26998;48.714;9.414;2023-05-20T09:53:51;98615.75;;;20.02;100.00
41264;BME280;26998;48.714;9.414;2023-05-20T09:56:19;98616.22;;;20.67;95.52
41264;BME280;26998;48.714;9.414;2023-05-20T09:58:46;98619.22;;;21.27;92.55
41264;BME280;26998;48.714;9.414;2023-05-20T10:01:13;98621.41;;;20.94;93.28
41264;BME280;26998;48.714;9.414;2023-05-20T10:03:40;98621.13;;;19.92;96.41
41264;BME280;26998;48.714;9.414;2023-05-20T10:17:54;98606.47;;;19.93;99.97
41264;BME280;26998;48.714;9.414;2023-05-20T10:20:27;98599.31;;;20.45;96.63
41264;BME280;26998;48.714;9.414;2023-05-20T10:22:55;98594.47;;;20.47;99.80
41264;BME280;26998;48.714;9.414;2023-05-20T10:25:26;98588.53;;;20.60;96.65
41264;BME280;26998;48.714;9.414;2023-05-20T10:28:05;98584.69;;;20.51;92.54
41264;BME280;26998;48.714;9.414;2023-05-20T10:30:33;98584.97;;;20.55;97.58
41264;BME280;26998;48.714;9.414;2023-05-20T10:33:04;98577.13;;;20.84;95.98
41264;BME280;26998;48.714;9.414;2023-05-20T10:35:32;98573.03;;;21.02;95.31
41264;BME280;26998;48.714;9.414;2023-05-20T10:38:07;98560.56;;;20.80;93.65
41264;BME280;26998;48.714;9.414;2023-05-20T10:40:34;98573.84;;;21.22;94.32
41264;BME280;26998;48.714;9.414;2023-05-20T10:43:12;98566.84;;;21.97;91.53
41264;BME280;26998;48.714;9.414;2023-05-20T10:45:53;98569.03;;;21.95;90.72
41264;BME280;26998;48.714;9.414;2023-05-20T10:48:29;98562.31;;;22.31;87.15
41264;BME280;26998;48.714;9.414;2023-05-20T10:51:01;98556.31;;;22.34;84.31
41264;BME280;26998;48.714;9.414;2023-05-20T10:53:40;98539.41;;;21.88;86.25
41264;BME280;26998;48.714;9.414;2023-05-20T10:56:18;98541.34;;;22.37;85.13
41264;BME280;26998;48.714;9.414;2023-05-20T10:58:45;98543.59;;;22.25;87.46
41264;BME280;26998;48.714;9.414;2023-05-20T11:01:13;98547.50;;;22.03;85.50
41264;BME280;26998;48.714;9.414;2023-05-20T11:03:42;98543.81;;;22.68;83.12
41264;BME280;26998;48.714;9.414;2023-05-20T11:06:10;98535.97;;;23.24;80.14
41264;BME280;26998;48.714;9.414;2023-05-20T11:08:37;98533.06;;;23.16;80.43
41264;BME280;26998;48.714;9.414;2023-05-20T11:11:04;98535.97;;;22.95;83.16
41264;BME280;26998;48.714;9.414;2023-05-20T11:13:31;98527.53;;;22.92;82.13
41264;BME280;26998;48.714;9.414;2023-05-20T11:16:00;98530.34;;;22.52;82.18
41264;BME280;26998;48.714;9.414;2023-05-20T11:18:30;98522.84;;;23.26;74.42
41264;BME280;26998;48.714;9.414;2023-05-20T11:20:57;98509.50;;;22.67;78.05
41264;BME280;26998;48.714;9.414;2023-05-20T11:23:26;98517.44;;;22.24;81.89
41264;BME280;26998;48.714;9.414;2023-05-20T11:25:54;98519.66;;;22.22;82.49
41264;BME280;26998;48.714;9.414;2023-05-20T11:28:24;98514.16;;;22.27;83.55
41264;BME280;26998;48.714;9.414;2023-05-20T11:30:51;98515.59;;;22.53;81.89
41264;BME280;26998;48.714;9.414;2023-05-20T11:33:18;98499.06;;;22.74;79.78
41264;BME280;26998;48.714;9.414;2023-05-20T11:35:48;98509.97;;;22.74;80.71
41264;BME280;26998;48.714;9.414;2023-05-20T11:38:15;98506.44;;;22.73;81.46
41264;BME280;26998;48.714;9.414;2023-05-20T11:40:54;98510.28;;;22.72;80.50
41264;BME280;26998;48.714;9.414;2023-05-20T11:43:25;98507.59;;;22.33;80.34
41264;BME280;26998;48.714;9.414;2023-05-20T11:45:53;98490.03;;;22.05;82.36
41264;BME280;26998;48.714;9.414;2023-05-20T11:48:20;98487.56;;;22.13;82.45
41264;BME280;26998;48.714;9.414;2023-05-20T11:50:47;98487.34;;;22.44;83.81
41264;BME280;26998;48.714;9.414;2023-05-20T11:53:22;98490.97;;;22.69;80.42
41264;BME280;26998;48.714;9.414;2023-05-20T11:55:49;98500.53;;;22.32;81.80
41264;BME280;26998;48.714;9.414;2023-05-20T11:58:18;98485.38;;;22.84;76.29
41264;BME280;26998;48.714;9.414;2023-05-20T12:00:45;98482.44;;;22.80;75.55
41264;BME280;26998;48.714;9.414;2023-05-20T12:03:24;98480.75;;;23.38;72.16
41264;BME280;26998;48.714;9.414;2023-05-20T12:05:51;98481.69;;;22.70;78.49
41264;BME280;26998;48.714;9.414;2023-05-20T12:08:18;98471.50;;;22.17;82.03
41264;BME280;26998;48.714;9.414;2023-05-20T12:10:45;98471.38;;;22.32;83.01
41264;BME280;26998;48.714;9.414;2023-05-20T12:13:12;98473.13;;;22.18;84.69
41264;BME280;26998;48.714;9.414;2023-05-20T12:15:39;98469.44;;;22.67;82.22
41264;BME280;26998;48.714;9.414;2023-05-20T12:18:06;98472.84;;;22.83;78.28
41264;BME280;26998;48.714;9.414;2023-05-20T12:20:33;98470.41;;;22.52;79.08
41264;BME280;26998;48.714;9.414;2023-05-20T12:23:01;98468.06;;;22.41;81.92
41264;BME280;26998;48.714;9.414;2023-05-20T12:25:28;98466.69;;;23.01;77.08
41264;BME280;26998;48.714;9.414;2023-05-20T12:27:55;98458.91;;;22.90;78.17
41264;BME280;26998;48.714;9.414;2023-05-20T12:30:22;98462.47;;;23.14;77.21
41264;BME280;26998;48.714;9.414;2023-05-20T12:32:51;98461.44;;;22.81;79.10
41264;BME280;26998;48.714;9.414;2023-05-20T12:35:25;98451.88;;;23.13;77.01
41264;BME280;26998;48.714;9.414;2023-05-20T12:37:51;98451.22;;;22.97;78.90
41264;BME280;26998;48.714;9.414;2023-05-20T12:40:18;98446.28;;;23.23;74.99
41264;BME280;26998;48.714;9.414;2023-05-20T12:42:45;98456.66;;;23.69;70.34
41264;BME280;26998;48.714;9.414;2023-05-20T12:45:12;98453.50;;;23.57;73.38
41264;BME280;26998;48.714;9.414;2023-05-20T12:47:38;98467.06;;;24.42;66.06
41264;BME280;26998;48.714;9.414;2023-05-20T12:50:05;98462.09;;;23.69;67.80
41264;BME280;26998;48.714;9.414;2023-05-20T12:52:32;98456.38;;;24.08;62.33
41264;BME280;26998;48.714;9.414;2023-05-20T12:54:59;98444.72;;;24.03;68.06
41264;BME280;26998;48.714;9.414;2023-05-20T12:57:25;98442.63;;;23.94;65.35
41264;BME280;26998;48.714;9.414;2023-05-20T12:59:52;98451.00;;;23.60;68.84
41264;BME280;26998;48.714;9.414;2023-05-20T13:02:19;98444.94;;;23.87;67.78
41264;BME280;26998;48.714;9.414;2023-05-20T13:04:46;98445.72;;;24.07;60.86
41264;BME280;26998;48.714;9.414;2023-05-20T13:07:13;98440.81;;;23.47;62.05
41264;BME280;26998;48.714;9.414;2023-05-20T13:09:40;98453.41;;;23.86;60.76